createdAt,value
2018-06-17T00:00:43.087Z,28.47
2018-06-17T00:03:10.381Z,31.50
2018-06-17T00:05:37.653Z,28.87
2018-06-17T00:08:04.948Z,32.47
2018-06-17T00:10:32.251Z,31.70
2018-06-17T00:12:59.537Z,30.67
2018-06-17T00:15:26.849Z,30.40
2018-06-17T00:17:54.141Z,32.77
2018-06-17T00:20:21.457Z,30.93
2018-06-17T00:22:48.736Z,32.43
2018-06-17T00:25:16.018Z,34.83
2018-06-17T00:27:43.301Z,36.43
2018-06-17T00:30:10.630Z,35.80
2018-06-17T00:32:37.952Z,35.60
2018-06-17T00:35:05.249Z,36.10
2018-06-17T00:37:32.521Z,36.50
2018-06-17T00:39:59.797Z,37.20
2018-06-17T00:42:27.096Z,34.57
2018-06-17T00:44:54.380Z,31.30
2018-06-17T00:47:21.691Z,34.83
2018-06-17T00:49:49.221Z,31.80
2018-06-17T00:52:16.517Z,31.13
2018-06-17T00:54:43.788Z,34.10
2018-06-17T00:57:16.861Z,32.17
2018-06-17T00:59:44.189Z,32.30
2018-06-17T01:02:11.521Z,32.40
2018-06-17T01:04:38.857Z,29.83
2018-06-17T01:07:06.155Z,33.30
2018-06-17T01:09:33.490Z,36.17
2018-06-17T01:12:00.789Z,36.10
2018-06-17T01:14:28.080Z,33.00
2018-06-17T01:16:55.376Z,35.47
2018-06-17T01:19:22.723Z,32.53
2018-06-17T01:21:50.043Z,29.40
2018-06-17T01:24:17.340Z,31.97
2018-06-17T01:26:44.690Z,34.63
2018-06-17T01:29:11.969Z,32.70
2018-06-17T01:31:39.245Z,32.40
2018-06-17T01:34:06.539Z,31.77
2018-06-17T01:36:33.817Z,32.10
2018-06-17T01:39:01.109Z,31.30
2018-06-17T01:41:28.370Z,30.80
2018-06-17T01:43:55.649Z,31.53
2018-06-17T01:46:22.973Z,32.50
2018-06-17T01:48:50.265Z,30.50
2018-06-17T01:51:17.801Z,30.80
2018-06-17T01:53:45.085Z,32.17
2018-06-17T01:56:12.348Z,31.73
2018-06-17T01:58:39.793Z,32.20
2018-06-17T02:01:07.098Z,35.40
2018-06-17T02:04:40.055Z,33.67
2018-06-17T02:07:13.192Z,33.87
2018-06-17T02:09:46.284Z,36.00
2018-06-17T02:12:16.248Z,36.57
2018-06-17T02:14:49.366Z,38.90
2018-06-17T02:17:16.865Z,37.20
2018-06-17T02:19:44.154Z,38.27
2018-06-17T02:22:11.438Z,35.30
2018-06-17T02:24:38.715Z,37.23
2018-06-17T02:27:06.051Z,36.47
2018-06-17T02:29:33.509Z,37.20
2018-06-17T02:32:00.785Z,36.10
2018-06-17T02:34:28.064Z,38.57
2018-06-17T02:36:55.343Z,37.27
2018-06-17T02:39:22.614Z,36.60
2018-06-17T02:41:49.907Z,39.53
2018-06-17T02:44:17.201Z,39.60
2018-06-17T02:46:50.172Z,39.10
2018-06-17T02:49:23.357Z,39.00
2018-06-17T02:51:56.641Z,38.17
2018-06-17T02:54:29.765Z,36.10
2018-06-17T02:56:57.046Z,37.13
2018-06-17T02:59:24.331Z,37.23
2018-06-17T03:01:51.645Z,37.20
2018-06-17T03:04:18.989Z,36.57
2018-06-17T03:06:46.320Z,37.47
2018-06-17T03:09:13.678Z,37.43
2018-06-17T03:11:41.033Z,38.40
2018-06-17T03:14:08.577Z,38.80
2018-06-17T03:16:36.237Z,36.87
2018-06-17T03:19:03.529Z,35.63
2018-06-17T03:21:31.062Z,36.10
2018-06-17T03:23:58.356Z,37.33
2018-06-17T03:26:31.348Z,37.93
2018-06-17T03:29:04.589Z,39.00
2018-06-17T03:31:37.694Z,39.77
2018-06-17T03:34:05.028Z,37.67
2018-06-17T03:36:32.309Z,36.63
2018-06-17T03:38:59.600Z,39.93
2018-06-17T03:41:26.877Z,39.03
2018-06-17T03:43:54.185Z,35.20
2018-06-17T03:46:21.481Z,38.47
2018-06-17T03:48:48.769Z,40.40
2018-06-17T03:51:16.045Z,37.00
2018-06-17T03:53:43.485Z,37.60
2018-06-17T03:56:10.813Z,36.30
2018-06-17T03:58:38.145Z,38.37
2018-06-17T04:01:05.437Z,39.20
2018-06-17T04:03:32.731Z,35.47
2018-06-17T04:06:00.029Z,37.57
2018-06-17T04:08:27.329Z,35.53
2018-06-17T04:10:54.622Z,35.20
2018-06-17T04:13:21.907Z,37.53
2018-06-17T04:15:49.177Z,35.00
2018-06-17T04:18:16.456Z,34.57
2018-06-17T04:20:43.768Z,35.13
2018-06-17T04:23:11.070Z,32.73
2018-06-17T04:25:38.399Z,35.43
2018-06-17T04:28:05.844Z,34.37
2018-06-17T04:30:33.181Z,34.13
2018-06-17T04:33:00.474Z,32.70
2018-06-17T04:35:27.907Z,33.30
2018-06-17T04:37:55.197Z,31.40
2018-06-17T04:40:22.645Z,32.90
2018-06-17T04:42:49.940Z,32.37
2018-06-17T04:45:17.217Z,32.90
2018-06-17T04:47:44.499Z,34.17
2018-06-17T04:50:11.805Z,34.47
2018-06-17T04:52:39.082Z,34.13
2018-06-17T04:55:06.407Z,33.57
2018-06-17T04:57:33.702Z,33.13
2018-06-17T05:00:01.053Z,31.77
2018-06-17T05:02:28.298Z,31.47
2018-06-17T05:04:55.570Z,33.27
2018-06-17T05:07:22.837Z,31.83
2018-06-17T05:09:50.115Z,31.20
2018-06-17T05:12:17.390Z,30.73
2018-06-17T05:14:44.691Z,31.77
2018-06-17T05:17:12.004Z,30.57
2018-06-17T05:19:39.300Z,29.80
2018-06-17T05:22:06.597Z,30.73
2018-06-17T05:24:33.861Z,30.37
2018-06-17T05:27:01.146Z,30.13
2018-06-17T05:29:28.423Z,28.03
2018-06-17T05:31:55.822Z,28.07
2018-06-17T05:34:23.121Z,28.70
2018-06-17T05:36:50.419Z,27.83
2018-06-17T05:39:17.695Z,24.77
2018-06-17T05:41:45.001Z,25.70
2018-06-17T05:44:12.289Z,26.63
2018-06-17T05:46:39.569Z,24.23
2018-06-17T05:49:07.095Z,21.63
2018-06-17T05:51:34.570Z,20.10
2018-06-17T05:54:01.868Z,20.50
2018-06-17T05:56:29.352Z,20.97
2018-06-17T05:58:56.649Z,18.00
2018-06-17T06:01:23.925Z,18.00
2018-06-17T06:03:51.207Z,19.50
2018-06-17T06:06:18.838Z,18.03
2018-06-17T06:08:46.214Z,18.10
2018-06-17T06:11:14.334Z,16.50
2018-06-17T06:13:41.615Z,15.47
2018-06-17T06:16:08.901Z,15.87
2018-06-17T06:18:36.233Z,15.20
2018-06-17T06:21:03.499Z,14.90
2018-06-17T06:23:30.977Z,13.90
2018-06-17T06:25:58.284Z,11.83
2018-06-17T06:28:25.578Z,12.30
2018-06-17T06:30:52.907Z,10.40
2018-06-17T06:33:20.176Z,10.67
2018-06-17T06:35:47.451Z,7.90
2018-06-17T06:38:14.718Z,8.07
2018-06-17T06:40:42.022Z,8.07
2018-06-17T06:43:09.345Z,8.60
2018-06-17T06:45:36.715Z,8.80
2018-06-17T06:48:04.132Z,7.73
2018-06-17T06:50:31.445Z,6.80
2018-06-17T06:52:58.717Z,7.43
2018-06-17T06:55:26.058Z,7.57
2018-06-17T06:57:53.577Z,7.30
2018-06-17T07:00:21.113Z,7.10
2018-06-17T07:02:54.299Z,7.43
2018-06-17T07:05:27.377Z,6.50
2018-06-17T07:08:00.825Z,7.27
2018-06-17T07:10:29.206Z,7.40
2018-06-17T07:12:56.537Z,7.60
2018-06-17T07:15:29.612Z,7.43
2018-06-17T07:18:02.734Z,7.87
2018-06-17T07:20:30.011Z,9.03
2018-06-17T07:22:57.277Z,8.17
2018-06-17T07:26:38.433Z,8.27
2018-06-17T07:29:11.501Z,9.70
2018-06-17T07:31:38.874Z,7.93
2018-06-17T07:34:06.677Z,8.53
2018-06-17T07:36:34.514Z,7.90
2018-06-17T07:39:10.413Z,8.93
2018-06-17T07:41:38.860Z,8.30
2018-06-17T07:44:06.216Z,10.10
2018-06-17T07:46:33.648Z,8.03
2018-06-17T07:49:34.145Z,8.77
2018-06-17T07:52:09.412Z,7.60
2018-06-17T07:54:37.826Z,7.70
2018-06-17T07:57:06.101Z,6.90
2018-06-17T07:59:34.190Z,6.70
2018-06-17T08:02:02.625Z,6.53
2018-06-17T08:04:30.043Z,7.50
2018-06-17T08:06:57.312Z,8.10
2018-06-17T08:09:24.940Z,7.90
2018-06-17T08:11:52.301Z,5.43
2018-06-17T08:14:19.585Z,6.93
2018-06-17T08:16:46.885Z,4.87
2018-06-17T08:19:14.241Z,5.30
2018-06-17T08:21:41.564Z,5.67
2018-06-17T08:24:08.862Z,5.53
2018-06-17T08:26:36.172Z,6.07
2018-06-17T08:29:03.550Z,6.53
2018-06-17T08:31:30.864Z,6.90
2018-06-17T08:33:58.227Z,6.93
2018-06-17T08:36:25.555Z,6.00
2018-06-17T08:38:52.964Z,4.57
2018-06-17T08:41:20.265Z,5.00
2018-06-17T08:43:47.569Z,4.50
2018-06-17T08:46:14.845Z,4.20
2018-06-17T08:48:42.138Z,4.17
2018-06-17T08:51:09.452Z,3.60
2018-06-17T08:53:36.766Z,3.73
2018-06-17T08:56:04.057Z,3.40
2018-06-17T08:58:31.357Z,3.60
2018-06-17T09:00:58.974Z,3.63
2018-06-17T09:03:26.251Z,3.90
2018-06-17T09:05:53.658Z,4.57
2018-06-17T09:08:20.999Z,5.07
2018-06-17T09:10:48.323Z,5.30
2018-06-17T09:13:15.600Z,5.27
2018-06-17T09:15:42.933Z,5.53
2018-06-17T09:18:10.253Z,5.77
2018-06-17T09:20:37.550Z,6.03
2018-06-17T09:23:04.848Z,5.80
2018-06-17T09:25:32.397Z,6.30
2018-06-17T09:27:59.720Z,6.23
2018-06-17T09:30:27.001Z,6.10
2018-06-17T09:32:54.370Z,6.10
2018-06-17T09:35:21.706Z,6.33
2018-06-17T09:37:48.993Z,6.70
2018-06-17T09:40:16.296Z,7.63
2018-06-17T09:42:43.574Z,6.70
2018-06-17T09:45:10.862Z,6.47
2018-06-17T09:47:38.220Z,6.73
2018-06-17T09:50:05.513Z,6.10
2018-06-17T09:52:32.781Z,6.80
2018-06-17T09:55:00.050Z,6.73
2018-06-17T09:57:27.325Z,6.57
2018-06-17T09:59:54.876Z,8.60
2018-06-17T10:02:22.361Z,7.60
2018-06-17T10:04:49.633Z,6.83
2018-06-17T10:07:16.963Z,8.40
2018-06-17T10:09:50.690Z,8.93
2018-06-17T10:12:17.978Z,8.60
2018-06-17T10:14:45.265Z,7.20
2018-06-17T10:17:12.554Z,7.80
2018-06-17T10:19:39.894Z,6.87
2018-06-17T10:22:07.216Z,7.73
2018-06-17T10:24:34.517Z,7.50
2018-06-17T10:27:01.854Z,7.30
2018-06-17T10:29:29.207Z,7.70
2018-06-17T10:31:56.453Z,8.00
2018-06-17T10:34:23.786Z,8.23
2018-06-17T10:36:51.105Z,9.00
2018-06-17T10:39:18.440Z,7.20
2018-06-17T10:41:45.713Z,6.40
2018-06-17T10:44:13.019Z,6.60
2018-06-17T10:46:40.314Z,7.10
2018-06-17T10:49:07.778Z,7.37
2018-06-17T10:51:35.089Z,7.63
2018-06-17T10:54:02.409Z,6.97
2018-06-17T10:56:29.707Z,6.03
2018-06-17T10:58:57.072Z,7.33
2018-06-17T11:01:24.403Z,7.40
2018-06-17T11:03:51.840Z,8.03
2018-06-17T11:06:19.161Z,6.80
2018-06-17T11:08:46.498Z,6.83
2018-06-17T11:11:13.778Z,4.90
2018-06-17T11:13:41.116Z,4.70
2018-06-17T11:16:08.433Z,4.13
2018-06-17T11:18:35.729Z,3.63
2018-06-17T11:21:03.038Z,3.63
2018-06-17T11:23:30.325Z,3.70
2018-06-17T11:25:57.685Z,3.50
2018-06-17T11:28:24.976Z,3.10
2018-06-17T11:30:52.288Z,2.50
2018-06-17T11:33:19.596Z,2.83
2018-06-17T11:35:46.972Z,3.30
2018-06-17T11:38:14.409Z,3.50
2018-06-17T11:40:41.746Z,3.00
2018-06-17T11:43:09.036Z,3.63
2018-06-17T11:45:36.314Z,2.87
2018-06-17T11:48:06.137Z,4.20
2018-06-17T11:50:33.452Z,3.00
2018-06-17T11:53:00.760Z,2.77
2018-06-17T11:55:28.040Z,2.27
2018-06-17T11:57:55.313Z,3.30
2018-06-17T12:00:22.609Z,3.20
2018-06-17T12:02:49.904Z,3.50
2018-06-17T12:05:17.421Z,2.93
2018-06-17T12:07:44.736Z,3.70
2018-06-17T12:10:12.125Z,3.03
2018-06-17T12:12:39.425Z,3.30
2018-06-17T12:15:06.735Z,3.73
2018-06-17T12:17:34.073Z,4.57
2018-06-17T12:20:01.410Z,3.90
2018-06-17T12:22:28.880Z,3.60
2018-06-17T12:24:56.183Z,3.37
2018-06-17T12:27:23.479Z,3.33
2018-06-17T12:29:50.800Z,3.10
2018-06-17T12:32:18.129Z,3.30
2018-06-17T12:34:45.416Z,3.10
2018-06-17T12:37:12.704Z,3.57
2018-06-17T12:39:40.025Z,3.20
2018-06-17T12:42:07.521Z,3.90
2018-06-17T12:44:34.868Z,2.77
2018-06-17T12:47:02.201Z,2.90
2018-06-17T12:49:29.510Z,3.97
2018-06-17T12:51:56.789Z,4.17
2018-06-17T12:54:24.086Z,3.23
2018-06-17T12:56:51.421Z,3.57
2018-06-17T12:59:18.725Z,3.67
2018-06-17T13:01:46.012Z,4.33
2018-06-17T13:04:13.325Z,3.90
2018-06-17T13:06:40.954Z,3.50
2018-06-17T13:09:09.543Z,3.60
2018-06-17T13:11:36.848Z,3.77
2018-06-17T13:14:04.157Z,3.90
2018-06-17T13:16:31.481Z,4.00
2018-06-17T13:18:58.778Z,4.20
2018-06-17T13:21:26.075Z,3.50
2018-06-17T13:23:53.465Z,4.27
2018-06-17T13:26:20.833Z,4.10
2018-06-17T13:28:48.110Z,4.70
2018-06-17T13:31:15.411Z,4.40
2018-06-17T13:33:42.759Z,5.17
2018-06-17T13:36:10.049Z,5.30
2018-06-17T13:38:37.389Z,4.63
2018-06-17T13:41:04.693Z,5.00
2018-06-17T13:43:31.995Z,5.50
2018-06-17T13:45:59.281Z,5.40
2018-06-17T13:48:26.571Z,5.63
2018-06-17T13:50:53.881Z,5.00
2018-06-17T13:53:21.196Z,6.67
2018-06-17T13:55:48.518Z,6.03
2018-06-17T13:58:15.785Z,4.83
2018-06-17T14:00:43.092Z,7.83
2018-06-17T14:03:10.386Z,6.70
2018-06-17T14:05:37.661Z,6.53
2018-06-17T14:08:05.146Z,5.77
2018-06-17T14:10:32.440Z,6.80
2018-06-17T14:12:59.735Z,5.70
2018-06-17T14:15:27.034Z,6.50
2018-06-17T14:17:54.341Z,5.33
2018-06-17T14:20:21.649Z,4.50
2018-06-17T14:22:48.933Z,5.23
2018-06-17T14:25:16.209Z,6.33
2018-06-17T14:27:43.525Z,5.17
2018-06-17T14:30:10.822Z,5.90
2018-06-17T14:32:38.112Z,5.30
2018-06-17T14:35:05.450Z,5.30
2018-06-17T14:37:32.753Z,5.97
2018-06-17T14:40:00.069Z,4.67
2018-06-17T14:42:33.161Z,5.00
2018-06-17T14:45:06.393Z,4.17
2018-06-17T14:47:39.441Z,4.83
2018-06-17T14:50:12.792Z,4.80
2018-06-17T14:52:45.889Z,4.23
2018-06-17T14:55:13.164Z,4.23
2018-06-17T14:57:40.457Z,4.17
2018-06-17T15:00:07.785Z,4.00
2018-06-17T15:02:35.115Z,4.73
2018-06-17T15:05:02.476Z,4.50
2018-06-17T15:07:29.846Z,3.00
2018-06-17T15:09:57.294Z,3.83
2018-06-17T15:12:24.697Z,3.20
2018-06-17T15:14:51.973Z,3.57
2018-06-17T15:17:19.253Z,2.77
2018-06-17T15:19:46.537Z,3.80
2018-06-17T15:22:13.864Z,3.90
2018-06-17T15:24:41.173Z,2.90
2018-06-17T15:27:08.489Z,2.90
2018-06-17T15:29:35.790Z,3.37
2018-06-17T15:32:09.069Z,3.47
2018-06-17T15:34:42.217Z,2.93
2018-06-17T15:37:15.373Z,3.00
2018-06-17T15:39:46.846Z,3.23
2018-06-17T15:42:14.125Z,2.77
2018-06-17T15:44:41.485Z,3.10
2018-06-17T15:47:08.805Z,2.93
2018-06-17T15:49:36.101Z,2.50
2018-06-17T15:52:03.399Z,3.17
2018-06-17T15:54:30.733Z,2.50
2018-06-17T15:56:58.030Z,2.70
2018-06-17T15:59:25.338Z,3.87
2018-06-17T16:01:52.632Z,4.13
2018-06-17T16:04:19.910Z,3.10
2018-06-17T16:06:47.195Z,2.47
2018-06-17T16:09:14.477Z,2.30
2018-06-17T16:11:47.839Z,2.57
2018-06-17T16:14:20.809Z,2.40
2018-06-17T16:16:53.761Z,2.03
2018-06-17T16:19:26.755Z,2.30
2018-06-17T16:21:54.102Z,2.03
2018-06-17T16:24:21.413Z,2.70
2018-06-17T16:26:48.709Z,2.30
2018-06-17T16:29:16.026Z,2.60
2018-06-17T16:31:43.362Z,2.30
2018-06-17T16:34:10.658Z,3.00
2018-06-17T16:36:38.422Z,2.17
2018-06-17T16:39:06.585Z,2.37
2018-06-17T16:41:33.885Z,2.13
2018-06-17T16:44:01.209Z,1.80
2018-06-17T16:46:28.525Z,1.90
2018-06-17T16:48:55.808Z,2.53
2018-06-17T16:51:28.899Z,1.83
2018-06-17T16:54:01.994Z,2.10
2018-06-17T16:56:35.281Z,1.83
2018-06-17T16:59:08.297Z,2.00
2018-06-17T17:01:35.592Z,2.40
2018-06-17T17:04:02.896Z,2.00
2018-06-17T17:06:30.217Z,2.40
2018-06-17T17:08:57.506Z,2.30
2018-06-17T17:11:24.834Z,2.40
2018-06-17T17:13:52.347Z,2.00
2018-06-17T17:16:19.653Z,2.77
2018-06-17T17:18:46.940Z,2.27
2018-06-17T17:21:14.222Z,2.57
2018-06-17T17:23:41.537Z,2.20
2018-06-17T17:26:08.854Z,2.10
2018-06-17T17:28:36.162Z,2.10
2018-06-17T17:31:03.510Z,2.00
2018-06-17T17:33:36.535Z,2.60
2018-06-17T17:36:09.624Z,2.13
2018-06-17T17:38:42.708Z,2.50
2018-06-17T17:41:09.993Z,2.60
2018-06-17T17:43:37.338Z,1.60
2018-06-17T17:46:10.633Z,6.93
2018-06-17T17:48:37.921Z,3.30
2018-06-17T17:51:07.668Z,3.17
2018-06-17T17:53:37.112Z,2.87
2018-06-17T17:56:06.590Z,2.63
2018-06-17T17:58:35.537Z,1.83
2018-06-17T18:01:03.595Z,3.20
2018-06-17T18:03:32.528Z,2.30
2018-06-17T18:06:02.204Z,2.33
2018-06-17T18:08:30.081Z,2.13
2018-06-17T18:10:57.408Z,3.20
2018-06-17T18:13:24.752Z,2.40
2018-06-17T18:15:52.224Z,2.80
2018-06-17T18:18:19.500Z,2.40
2018-06-17T18:20:46.822Z,2.17
2018-06-17T18:23:14.109Z,2.50
2018-06-17T18:25:47.200Z,2.57
2018-06-17T18:28:20.245Z,2.67
2018-06-17T18:30:53.215Z,2.10
2018-06-17T18:33:26.406Z,2.13
2018-06-17T18:35:59.598Z,1.90
2018-06-17T18:38:26.898Z,1.80
2018-06-17T18:40:54.253Z,2.40
2018-06-17T18:43:21.549Z,2.23
2018-06-17T18:45:48.885Z,2.40
2018-06-17T18:48:16.187Z,2.10
2018-06-17T18:50:43.609Z,2.40
2018-06-17T18:53:10.934Z,2.40
2018-06-17T18:55:38.285Z,2.43
2018-06-17T18:58:05.633Z,2.03
2018-06-17T19:00:32.949Z,1.93
2018-06-17T19:03:00.269Z,2.10
2018-06-17T19:05:27.617Z,2.27
2018-06-17T19:07:54.917Z,2.80
2018-06-17T19:10:28.055Z,2.33
2018-06-17T19:13:01.025Z,2.40
2018-06-17T19:15:34.245Z,2.60
2018-06-17T19:18:04.573Z,2.03
2018-06-17T19:20:31.854Z,2.10
2018-06-17T19:22:59.141Z,2.40
2018-06-17T19:25:26.449Z,1.80
2018-06-17T19:27:53.777Z,2.43
2018-06-17T19:30:21.297Z,1.50
2018-06-17T19:32:48.597Z,2.00
2018-06-17T19:35:15.889Z,1.70
2018-06-17T19:37:43.153Z,2.57
2018-06-17T19:40:10.502Z,1.80
2018-06-17T19:42:37.792Z,2.40
2018-06-17T19:45:05.061Z,6.73
2018-06-17T19:47:32.370Z,3.00
2018-06-17T19:51:06.353Z,1.80
2018-06-17T19:54:37.297Z,2.07
2018-06-17T19:57:10.489Z,2.50
2018-06-17T19:59:43.685Z,2.27
2018-06-17T20:02:11.074Z,2.33
2018-06-17T20:04:38.401Z,2.00
2018-06-17T20:07:05.718Z,2.30
2018-06-17T20:09:32.988Z,2.30
2018-06-17T20:12:00.265Z,2.40
2018-06-17T20:14:27.565Z,1.77
2018-06-17T20:16:54.873Z,2.17
2018-06-17T20:19:22.413Z,2.57
2018-06-17T20:21:49.761Z,2.10
2018-06-17T20:24:17.046Z,2.80
2018-06-17T20:26:44.373Z,2.77
2018-06-17T20:29:11.701Z,2.50
2018-06-17T20:31:44.728Z,2.50
2018-06-17T20:34:17.797Z,2.67
2018-06-17T20:36:50.941Z,2.40
2018-06-17T20:39:24.128Z,2.30
2018-06-17T20:41:57.325Z,3.20
2018-06-17T20:44:24.637Z,2.40
2018-06-17T20:46:51.917Z,2.70
2018-06-17T20:49:19.242Z,2.17
2018-06-17T20:51:46.521Z,2.50
2018-06-17T20:54:13.812Z,2.30
2018-06-17T20:56:41.142Z,2.30
2018-06-17T20:59:08.432Z,2.40
2018-06-17T21:01:35.728Z,2.23
2018-06-17T21:04:03.018Z,2.80
2018-06-17T21:06:30.320Z,2.50
2018-06-17T21:08:57.604Z,3.40
2018-06-17T21:11:24.888Z,2.80
2018-06-17T21:13:52.205Z,2.67
2018-06-17T21:16:19.494Z,3.03
2018-06-17T21:18:52.536Z,2.70
2018-06-17T21:21:25.592Z,2.97
2018-06-17T21:23:58.737Z,2.33
2018-06-17T21:26:31.745Z,3.17
2018-06-17T21:28:59.066Z,3.13
2018-06-17T21:31:26.346Z,2.13
2018-06-17T21:33:53.645Z,2.97
2018-06-17T21:36:20.957Z,3.13
2018-06-17T21:38:48.253Z,2.77
2018-06-17T21:41:15.577Z,3.00
2018-06-17T21:43:42.926Z,2.93
2018-06-17T21:46:10.232Z,4.60
2018-06-17T21:48:37.557Z,3.00
2018-06-17T21:51:04.986Z,3.00
2018-06-17T21:53:32.289Z,2.83
2018-06-17T21:55:59.589Z,3.07
2018-06-17T21:59:01.026Z,2.97
2018-06-17T22:01:28.346Z,3.57
2018-06-17T22:04:00.256Z,3.47
2018-06-17T22:06:27.545Z,3.40
2018-06-17T22:09:00.830Z,4.17
2018-06-17T22:11:34.053Z,3.10
2018-06-17T22:15:08.021Z,3.20
2018-06-17T22:17:41.093Z,3.40
2018-06-17T22:20:08.432Z,3.00
2018-06-17T22:22:35.901Z,2.70
2018-06-17T22:25:03.213Z,2.80
2018-06-17T22:27:30.476Z,3.00
2018-06-17T22:29:57.745Z,2.97
2018-06-17T22:32:25.066Z,3.33
2018-06-17T22:34:52.422Z,3.57
2018-06-17T22:37:19.653Z,3.20
2018-06-17T22:39:46.944Z,3.70
2018-06-17T22:42:14.286Z,3.07
2018-06-17T22:44:41.569Z,3.67
2018-06-17T22:47:08.873Z,3.60
2018-06-17T22:49:36.161Z,3.67
2018-06-17T22:52:03.478Z,3.57
2018-06-17T22:54:36.575Z,3.90
2018-06-17T22:57:09.709Z,4.30
2018-06-17T22:59:42.902Z,4.13
2018-06-17T23:02:15.993Z,4.50
2018-06-17T23:04:49.096Z,4.33
2018-06-17T23:07:22.093Z,5.20
2018-06-17T23:09:50.280Z,4.23
2018-06-17T23:12:17.560Z,5.30
2018-06-17T23:14:44.868Z,4.90
2018-06-17T23:17:12.149Z,5.80
2018-06-17T23:19:39.449Z,5.63
2018-06-17T23:22:06.873Z,5.10
2018-06-17T23:24:34.395Z,4.70
2018-06-17T23:27:01.705Z,5.30
2018-06-17T23:29:28.997Z,5.00
2018-06-17T23:31:56.277Z,4.63
2018-06-17T23:34:23.585Z,4.00
2018-06-17T23:36:50.867Z,4.43
2018-06-17T23:39:18.148Z,4.97
2018-06-17T23:41:45.461Z,4.17
2018-06-17T23:44:12.745Z,4.00
2018-06-17T23:46:45.733Z,3.70
2018-06-17T23:49:18.861Z,4.30
2018-06-17T23:51:51.948Z,4.13
2018-06-17T23:54:25.044Z,4.23
2018-06-17T23:56:52.356Z,4.90
2018-06-17T23:59:19.630Z,4.90
